Time;durP1;ratioP1;P1;durP2;ratioP2;P2;SDS_P1;SDS_P2;PMS_P1;PMS_P2;Temp;Humidity;BMP_temperature;BMP_pressure;BME280_temperature;BME280_humidity;BME280_pressure;Samples;Min_cycle;Max_cycle;Signal;HPM_P1;HPM_P2
2022/11/08 00:02:06;;;;;;;16.40;6.97;;;14.30;60.90;;;;;;5068032;28;20619;-90
2022/11/08 00:04:34;;;;;;;15.73;6.90;;;14.40;60.40;;;;;;5081115;28;20476;-87
2022/11/08 00:15:15;;;;;;;4.70;3.80;;;14.80;58.40;;;;;;5072514;28;20435;-89
2022/11/08 00:17:43;;;;;;;4.77;3.67;;;14.80;58.00;;;;;;5099307;28;20539;-88
2022/11/08 00:20:11;;;;;;;7.47;4.20;;;14.80;57.70;;;;;;5081313;28;20438;-89
2022/11/08 00:22:38;;;;;;;9.83;3.93;;;14.80;57.80;;;;;;5069809;28;21053;-89
2022/11/08 00:25:07;;;;;;;7.30;4.23;;;14.60;58.70;;;;;;5059076;28;20493;-88
2022/11/08 00:27:34;;;;;;;7.70;3.80;;;14.60;58.70;;;;;;5068905;28;20436;-88
2022/11/08 00:30:02;;;;;;;8.43;3.50;;;14.60;58.60;;;;;;5102279;28;20474;-88
2022/11/08 00:32:29;;;;;;;5.30;3.30;;;14.60;58.20;;;;;;5064922;28;20839;-93
2022/11/08 00:34:56;;;;;;;3.20;2.53;;;14.50;58.20;;;;;;5102179;28;20454;-88
2022/11/08 00:37:23;;;;;;;5.43;3.10;;;14.30;59.20;;;;;;5050962;28;20970;-90
2022/11/08 00:39:50;;;;;;;2.67;2.43;;;14.30;59.10;;;;;;5071600;28;20450;-89
2022/11/08 00:42:18;;;;;;;4.10;2.80;;;14.20;58.90;;;;;;5088595;28;20493;-92
2022/11/08 00:44:46;;;;;;;12.87;3.47;;;13.80;59.90;;;;;;5064669;28;20455;-91
2022/11/08 00:47:13;;;;;;;3.60;2.13;;;13.90;59.30;;;;;;5081281;28;20479;-90
2022/11/08 00:49:40;;;;;;;3.70;3.30;;;14.00;58.80;;;;;;5089030;28;20478;-91
2022/11/08 00:52:07;;;;;;;6.43;3.50;;;14.00;59.90;;;;;;5053131;28;20466;-88
2022/11/08 00:54:34;;;;;;;4.10;2.43;;;13.90;59.60;;;;;;5067134;28;20969;-91
2022/11/08 00:57:01;;;;;;;5.57;3.40;;;13.90;59.70;;;;;;5065239;28;20460;-91
2022/11/08 00:59:29;;;;;;;5.20;3.07;;;13.70;59.90;;;;;;5050344;28;20497;-88
2022/11/08 01:01:56;;;;;;;7.77;3.03;;;13.90;59.60;;;;;;5069935;28;20468;-91
2022/11/08 01:04:23;;;;;;;4.17;2.97;;;14.00;59.00;;;;;;5066467;28;20487;-90
2022/11/08 01:06:51;;;;;;;4.97;2.73;;;14.10;59.10;;;;;;5067486;28;20450;-90
2022/11/08 01:09:18;;;;;;;7.60;3.00;;;14.20;58.80;;;;;;5075160;28;21237;-89
2022/11/08 01:11:46;;;;;;;6.40;3.10;;;14.20;58.20;;;;;;5064913;28;20521;-90
2022/11/08 01:14:14;;;;;;;4.40;3.47;;;14.20;57.70;;;;;;5084436;28;20530;-88
2022/11/08 01:16:44;;;;;;;6.40;3.10;;;14.10;57.60;;;;;;5068172;28;20978;-89
2022/11/08 01:19:11;;;;;;;3.50;3.20;;;14.00;58.40;;;;;;5082759;28;20549;-88
2022/11/08 01:21:38;;;;;;;4.13;2.50;;;13.90;58.10;;;;;;5101247;28;20914;-88
2022/11/08 01:24:06;;;;;;;3.40;2.30;;;13.70;59.40;;;;;;5065354;28;21875;-90
2022/11/08 01:26:33;;;;;;;2.90;2.60;;;13.60;59.70;;;;;;5068074;28;20467;-89
2022/11/08 01:29:00;;;;;;;4.33;2.60;;;13.80;59.50;;;;;;5061227;28;20471;-92
2022/11/08 01:31:30;;;;;;;6.47;3.47;;;13.90;58.90;;;;;;5044881;28;20479;-89
2022/11/08 01:33:59;;;;;;;9.77;3.50;;;14.00;58.50;;;;;;5078065;28;20526;-92
2022/11/08 01:36:28;;;;;;;3.47;3.00;;;14.00;58.40;;;;;;5097735;28;20530;-88
2022/11/08 01:38:56;;;;;;;3.10;2.43;;;14.00;58.40;;;;;;5050621;28;20436;-89
2022/11/08 01:41:26;;;;;;;3.07;2.77;;;13.90;58.70;;;;;;5068396;28;20502;-91
2022/11/08 01:43:54;;;;;;;3.50;3.20;;;14.00;58.20;;;;;;5078392;28;20942;-89
2022/11/08 01:46:33;;;;;;;7.80;3.50;;;14.10;57.80;;;;;;5083630;28;20444;-89
2022/11/08 01:49:18;;;;;;;5.80;2.90;;;14.10;57.40;;;;;;5052222;28;20467;-89
2022/11/08 01:51:52;;;;;;;6.80;3.40;;;14.00;56.90;;;;;;5067154;28;20473;-91
2022/11/08 01:54:25;;;;;;;4.00;3.00;;;13.90;57.20;;;;;;5072453;28;20501;-88
2022/11/08 01:56:53;;;;;;;3.50;3.00;;;14.00;57.30;;;;;;5091394;28;20519;-93
2022/11/08 01:59:21;;;;;;;3.57;2.83;;;14.00;57.40;;;;;;5083796;28;20447;-88
2022/11/08 02:01:48;;;;;;;6.50;4.17;;;14.00;57.80;;;;;;5088791;28;20479;-89
2022/11/08 02:04:17;;;;;;;8.13;4.20;;;13.80;58.80;;;;;;5073386;28;20458;-89
2022/11/08 02:06:44;;;;;;;8.17;4.17;;;13.40;59.30;;;;;;5087063;28;20965;-88
2022/11/08 02:09:14;;;;;;;19.57;5.73;;;13.30;59.30;;;;;;5086201;28;20977;-90
2022/11/08 02:11:42;;;;;;;58.33;7.23;;;13.10;60.10;;;;;;5064349;28;20519;-88
2022/11/08 02:14:10;;;;;;;6.27;3.97;;;12.80;61.20;;;;;;5080844;28;20443;-89
2022/11/08 02:16:37;;;;;;;10.83;5.20;;;12.80;61.40;;;;;;5091334;28;20488;-88
2022/11/08 02:19:10;;;;;;;8.37;4.30;;;12.90;61.50;;;;;;5087599;28;20440;-88
2022/11/08 02:21:46;;;;;;;6.17;4.00;;;12.80;61.20;;;;;;5083809;28;20471;-91
2022/11/08 02:24:15;;;;;;;5.97;3.60;;;12.70;60.90;;;;;;5089725;28;20448;-89
2022/11/08 02:26:44;;;;;;;3.47;3.17;;;12.60;60.80;;;;;;5064720;28;20452;-89
2022/11/08 02:29:29;;;;;;;3.40;2.87;;;12.60;60.80;;;;;;5074148;28;20469;-87
2022/11/08 02:31:57;;;;;;;4.77;3.20;;;12.80;60.60;;;;;;5091369;28;20494;-88
2022/11/08 02:34:30;;;;;;;6.93;3.00;;;13.00;59.60;;;;;;5075075;28;20455;-90
2022/11/08 02:36:58;;;;;;;4.50;2.80;;;13.00;59.00;;;;;;5072302;28;20454;-89
2022/11/08 02:39:27;;;;;;;2.73;2.50;;;13.10;58.60;;;;;;5087103;28;20450;-85
2022/11/08 02:41:54;;;;;;;5.37;4.00;;;13.20;58.50;;;;;;5085868;28;20466;-90
2022/11/08 02:44:21;;;;;;;4.23;3.27;;;13.30;57.80;;;;;;5063367;28;20443;-88
2022/11/08 02:46:49;;;;;;;4.00;3.40;;;13.30;57.50;;;;;;5083822;28;20451;-89
2022/11/08 02:49:16;;;;;;;4.60;3.50;;;13.30;57.30;;;;;;5091186;28;20459;-89
2022/11/08 02:51:43;;;;;;;4.23;3.33;;;13.30;57.30;;;;;;5070458;28;20467;-88
2022/11/08 02:54:10;;;;;;;6.20;3.97;;;13.20;57.10;;;;;;5092023;28;20447;-88
2022/11/08 02:56:38;;;;;;;6.60;3.80;;;13.20;57.50;;;;;;5070272;28;20452;-88
2022/11/08 02:59:06;;;;;;;4.70;3.53;;;13.10;57.40;;;;;;5057044;28;20447;-89
2022/11/08 03:01:33;;;;;;;9.50;3.80;;;13.20;57.30;;;;;;5089956;28;20505;-88
2022/11/08 03:04:00;;;;;;;11.57;3.80;;;13.20;57.80;;;;;;5089583;28;20459;-89
2022/11/08 03:06:27;;;;;;;46.27;6.80;;;13.20;57.90;;;;;;5084368;28;20467;-88
2022/11/08 03:08:54;;;;;;;23.70;4.10;;;13.20;58.20;;;;;;5084336;28;20950;-88
2022/11/08 03:11:21;;;;;;;13.97;4.20;;;13.20;58.40;;;;;;5052107;28;20462;-89
2022/11/08 03:13:49;;;;;;;122.03;9.60;;;13.10;59.00;;;;;;5067293;28;20447;-90
2022/11/08 03:16:16;;;;;;;6.97;4.60;;;13.00;59.10;;;;;;5098636;28;20488;-87
2022/11/08 03:18:44;;;;;;;8.80;4.67;;;12.80;60.00;;;;;;5055127;28;20458;-89
2022/11/08 03:21:11;;;;;;;121.60;9.63;;;12.90;59.60;;;;;;5073779;28;20451;-89
2022/11/08 03:23:38;;;;;;;67.60;8.40;;;12.90;59.60;;;;;;5085099;28;20475;-88
2022/11/08 03:26:06;;;;;;;53.10;7.47;;;12.40;61.40;;;;;;5057994;28;20455;-88
2022/11/08 03:28:33;;;;;;;57.80;7.57;;;12.20;62.30;;;;;;5085328;28;20458;-89
2022/11/08 03:31:02;;;;;;;67.27;8.00;;;12.20;62.40;;;;;;5081387;28;20479;-88
2022/11/08 03:33:29;;;;;;;23.23;5.50;;;12.30;62.40;;;;;;5068272;28;20439;-91
2022/11/08 03:35:56;;;;;;;16.17;5.07;;;12.40;62.10;;;;;;5056853;28;20479;-88
2022/11/08 03:38:23;;;;;;;62.90;8.60;;;12.60;62.10;;;;;;5059272;28;20496;-91
2022/11/08 03:40:50;;;;;;;20.37;5.73;;;12.70;61.10;;;;;;5101360;28;20459;-88
2022/11/08 03:43:17;;;;;;;47.30;7.37;;;12.80;60.00;;;;;;5086978;28;20463;-90
2022/11/08 03:45:46;;;;;;;73.63;6.77;;;12.80;59.70;;;;;;5071603;28;20455;-87
2022/11/08 03:48:14;;;;;;;86.63;8.13;;;12.50;60.70;;;;;;5068962;28;20450;-88
2022/11/08 03:50:41;;;;;;;64.37;6.60;;;12.40;61.00;;;;;;5103121;28;20483;-89
2022/11/08 03:53:08;;;;;;;18.10;5.00;;;12.00;62.50;;;;;;5100802;28;20685;-87
2022/11/08 03:55:35;;;;;;;22.97;6.53;;;12.10;62.70;;;;;;5085407;28;20447;-91
2022/11/08 03:58:02;;;;;;;6.57;4.40;;;12.30;62.10;;;;;;5104835;28;20458;-91
2022/11/08 04:00:30;;;;;;;32.30;5.20;;;12.50;61.60;;;;;;5065459;28;20451;-88
2022/11/08 04:03:01;;;;;;;19.63;5.63;;;12.60;61.40;;;;;;5070129;28;20463;-90
2022/11/08 04:05:31;;;;;;;8.20;4.10;;;12.50;61.20;;;;;;5065279;28;20536;-95
2022/11/08 04:07:58;;;;;;;13.73;5.57;;;12.60;61.10;;;;;;5085885;28;20443;-88
2022/11/08 04:10:25;;;;;;;11.33;5.00;;;12.60;60.80;;;;;;5045196;28;20466;-90
2022/11/08 04:15:36;;;;;;;36.53;5.60;;;12.80;59.80;;;;;;5090799;28;20432;-88
2022/11/08 04:23:37;;;;;;;7.80;3.57;;;12.80;58.90;;;;;;5084274;28;20435;-89
2022/11/08 04:26:06;;;;;;;27.60;5.20;;;12.60;59.40;;;;;;5072432;28;20448;-88
2022/11/08 04:28:37;;;;;;;24.00;4.57;;;12.60;59.50;;;;;;5087675;28;20532;-87
2022/11/08 04:31:06;;;;;;;27.77;4.57;;;12.50;59.40;;;;;;5082315;28;20562;-88
2022/11/08 04:33:33;;;;;;;48.53;6.60;;;12.60;59.70;;;;;;5066916;28;20455;-88
2022/11/08 04:36:03;;;;;;;40.03;7.20;;;12.60;59.60;;;;;;5070031;28;20435;-89
2022/11/08 04:38:30;;;;;;;40.00;7.00;;;12.40;59.50;;;;;;5101483;28;20439;-88
2022/11/08 04:41:02;;;;;;;14.63;5.00;;;12.20;59.80;;;;;;5053558;28;21034;-89
2022/11/08 04:43:29;;;;;;;15.00;5.17;;;12.30;60.40;;;;;;5079411;28;20456;-88
2022/11/08 04:46:02;;;;;;;6.60;4.73;;;12.40;60.20;;;;;;5070618;28;20448;-88
2022/11/08 04:48:29;;;;;;;6.03;4.40;;;12.30;59.60;;;;;;5086701;28;20478;-91
2022/11/08 04:51:03;;;;;;;26.50;6.63;;;12.30;59.70;;;;;;5090202;28;20985;-90
2022/11/08 04:53:30;;;;;;;28.63;7.77;;;12.30;59.50;;;;;;5067585;28;20470;-88
2022/11/08 04:56:02;;;;;;;18.30;5.00;;;12.20;59.40;;;;;;5076748;28;20446;-90
2022/11/08 04:58:32;;;;;;;56.57;8.00;;;12.30;59.70;;;;;;5068339;28;20443;-91
2022/11/08 05:01:00;;;;;;;27.97;5.77;;;12.30;58.90;;;;;;5106232;28;20459;-88
2022/11/08 05:03:27;;;;;;;44.93;6.77;;;12.20;59.10;;;;;;5079995;28;20938;-88
2022/11/08 05:05:54;;;;;;;25.57;6.00;;;12.10;59.20;;;;;;5070522;28;20510;-89
2022/11/08 05:08:23;;;;;;;10.77;5.20;;;12.20;59.70;;;;;;5070454;28;20459;-91
2022/11/08 05:10:50;;;;;;;43.23;7.60;;;12.10;59.60;;;;;;5064296;28;20479;-90
2022/11/08 05:13:17;;;;;;;119.80;10.47;;;11.40;60.40;;;;;;5088919;28;20487;-89
2022/11/08 05:15:44;;;;;;;7.53;5.03;;;10.80;62.70;;;;;;5095477;28;20451;-88
2022/11/08 05:18:11;;;;;;;21.50;6.17;;;10.70;64.10;;;;;;5073859;28;20608;-91
2022/11/08 05:23:24;;;;;;;16.50;6.53;;;11.30;63.10;;;;;;5076563;28;20458;-89
2022/11/08 05:25:52;;;;;;;109.13;11.50;;;11.60;62.40;;;;;;5093519;28;20463;-89
2022/11/08 05:28:19;;;;;;;16.60;8.60;;;11.60;61.80;;;;;;5084283;28;21160;-87
2022/11/08 05:30:53;;;;;;;99.43;12.70;;;11.80;61.90;;;;;;5077028;28;20467;-88
2022/11/08 05:33:20;;;;;;;206.37;44.20;;;12.00;61.30;;;;;;5084159;28;20950;-89
2022/11/08 05:35:47;;;;;;;238.97;27.03;;;11.60;60.80;;;;;;5062744;28;20444;-89
2022/11/08 05:38:15;;;;;;;114.37;25.10;;;11.00;62.60;;;;;;5083521;28;20447;-89
2022/11/08 05:40:43;;;;;;;33.67;12.40;;;10.80;63.30;;;;;;5079225;28;20439;-90
2022/11/08 05:43:11;;;;;;;41.33;9.43;;;11.10;63.90;;;;;;5076616;28;21147;-89
2022/11/08 05:45:38;;;;;;;67.10;12.47;;;11.50;62.80;;;;;;5045391;28;20530;-90
2022/11/08 05:48:06;;;;;;;20.40;9.77;;;11.70;61.80;;;;;;5061258;28;20458;-89
2022/11/08 05:50:33;;;;;;;169.77;22.20;;;11.80;61.50;;;;;;5070410;28;20566;-88
2022/11/08 05:53:05;;;;;;;48.70;11.23;;;11.50;60.70;;;;;;5069623;28;20660;-89
2022/11/08 05:55:32;;;;;;;193.87;17.90;;;11.10;62.80;;;;;;5081823;28;20452;-89
2022/11/08 05:58:00;;;;;;;10.97;6.93;;;11.00;63.00;;;;;;5072221;28;20946;-89
2022/11/08 06:00:27;;;;;;;71.20;11.40;;;11.20;63.10;;;;;;5077415;28;20434;-90
2022/11/08 06:02:54;;;;;;;21.17;9.30;;;11.50;62.10;;;;;;5052837;28;20448;-91
2022/11/08 06:08:04;;;;;;;235.63;19.57;;;11.40;60.80;;;;;;5097511;28;20832;-89
2022/11/08 06:10:31;;;;;;;63.93;10.67;;;11.20;61.30;;;;;;5056281;28;20458;-90
2022/11/08 06:13:00;;;;;;;181.83;17.70;;;11.10;62.10;;;;;;5047713;28;20486;-91
2022/11/08 06:15:27;;;;;;;26.57;9.47;;;11.00;62.10;;;;;;5068734;28;21243;-88
2022/11/08 06:17:54;;;;;;;23.23;8.13;;;11.20;62.70;;;;;;5054798;28;20451;-89
2022/11/08 06:20:21;;;;;;;158.47;13.73;;;11.40;62.10;;;;;;5083761;28;20454;-90
2022/11/08 06:22:49;;;;;;;358.90;24.80;;;11.60;61.90;;;;;;5068615;28;21925;-89
2022/11/08 06:25:16;;;;;;;139.87;13.70;;;11.60;60.20;;;;;;5052289;28;20479;-89
2022/11/08 06:27:43;;;;;;;12.80;6.23;;;11.40;60.70;;;;;;5086974;28;20447;-88
2022/11/08 06:30:13;;;;;;;13.03;6.80;;;11.50;61.20;;;;;;5087342;28;20489;-92
2022/11/08 06:32:40;;;;;;;324.60;20.73;;;11.70;61.10;;;;;;5040908;28;20471;-91
2022/11/08 06:35:07;;;;;;;105.90;11.57;;;11.60;59.70;;;;;;5065494;28;20538;-89
2022/11/08 06:37:34;;;;;;;51.00;8.17;;;11.30;60.60;;;;;;5076583;28;20459;-89
2022/11/08 06:40:01;;;;;;;41.43;7.47;;;11.00;61.70;;;;;;5057651;28;20452;-90
2022/11/08 06:42:28;;;;;;;113.27;11.73;;;11.20;61.60;;;;;;5078219;28;20557;-92
2022/11/08 06:44:55;;;;;;;36.83;7.33;;;10.70;62.20;;;;;;5065530;28;20462;-89
2022/11/08 06:47:24;;;;;;;23.07;6.00;;;10.50;63.80;;;;;;5085480;28;20444;-89
2022/11/08 06:49:52;;;;;;;35.63;6.27;;;10.60;63.90;;;;;;5070395;28;20443;-88
2022/11/08 06:52:19;;;;;;;29.03;6.60;;;10.80;63.20;;;;;;5081052;28;20482;-91
2022/11/08 06:54:46;;;;;;;10.13;6.23;;;11.00;62.20;;;;;;5067154;28;20454;-89
2022/11/08 06:57:13;;;;;;;38.03;7.30;;;11.20;62.30;;;;;;5063096;28;20455;-89
2022/11/08 06:59:40;;;;;;;32.27;8.43;;;11.40;61.80;;;;;;5101817;28;20511;-89
2022/11/08 07:02:08;;;;;;;42.37;9.40;;;11.60;61.40;;;;;;5072549;28;20469;-89
2022/11/08 07:04:37;;;;;;;38.87;8.27;;;11.30;60.90;;;;;;5094955;28;20476;-93
2022/11/08 07:07:04;;;;;;;36.83;9.23;;;11.20;61.40;;;;;;5072876;28;20555;-89
2022/11/08 07:09:31;;;;;;;25.23;7.23;;;11.10;61.70;;;;;;5063252;28;20451;-89
2022/11/08 07:11:58;;;;;;;46.57;8.87;;;10.90;62.50;;;;;;5055644;28;20519;-89
2022/11/08 07:14:25;;;;;;;42.47;8.83;;;10.70;62.80;;;;;;5070322;28;20443;-89
2022/11/08 07:16:52;;;;;;;80.77;10.97;;;10.90;63.20;;;;;;5049316;28;20451;-88
2022/11/08 07:19:19;;;;;;;84.27;10.87;;;11.00;62.40;;;;;;5086933;28;20846;-89
2022/11/08 07:21:48;;;;;;;51.73;9.00;;;10.90;63.20;;;;;;5056970;28;20551;-89
2022/11/08 07:24:15;;;;;;;29.07;7.67;;;10.70;63.40;;;;;;5086025;28;20482;-89
2022/11/08 07:26:42;;;;;;;73.63;11.83;;;10.60;63.30;;;;;;5068129;28;20959;-89
2022/11/08 07:29:09;;;;;;;19.50;6.40;;;10.80;63.50;;;;;;5102397;28;20458;-90
2022/11/08 07:31:36;;;;;;;25.33;7.97;;;11.00;62.40;;;;;;5067104;28;20990;-90
2022/11/08 07:34:03;;;;;;;24.30;9.00;;;11.30;61.90;;;;;;5086721;28;20440;-89
2022/11/08 07:36:30;;;;;;;34.83;6.43;;;11.50;61.50;;;;;;5047250;28;20451;-89
2022/11/08 07:38:58;;;;;;;14.73;6.87;;;11.10;61.40;;;;;;5067422;28;20527;-89
2022/11/08 07:41:25;;;;;;;19.07;6.87;;;10.70;62.70;;;;;;5094405;28;21187;-89
2022/11/08 07:43:52;;;;;;;16.37;6.00;;;10.40;63.60;;;;;;5060902;28;20463;-92
2022/11/08 07:46:19;;;;;;;40.40;8.90;;;10.70;64.20;;;;;;5047144;28;20453;-88
2022/11/08 07:48:47;;;;;;;40.93;8.70;;;10.80;63.30;;;;;;5079674;28;20443;-91
2022/11/08 07:51:15;;;;;;;32.40;9.10;;;10.90;63.30;;;;;;5063956;28;20497;-89
2022/11/08 07:53:44;;;;;;;32.90;8.53;;;10.80;62.70;;;;;;5079606;28;20451;-88
2022/11/08 07:56:33;;;;;;;19.17;7.17;;;10.70;63.30;;;;;;5092194;28;20810;-89
2022/11/08 07:59:01;;;;;;;28.83;7.90;;;11.00;63.10;;;;;;5095421;28;20816;-89
2022/11/08 08:01:29;;;;;;;15.07;8.10;;;10.80;63.40;;;;;;5075931;28;20459;-88
2022/11/08 08:04:25;;;;;;;20.07;6.77;;;11.00;63.60;;;;;;5030675;28;20449;-89
2022/11/08 08:06:58;;;;;;;10.50;5.60;;;11.20;63.30;;;;;;4993061;28;20452;-89
2022/11/08 08:09:48;;;;;;;33.57;6.97;;;11.30;62.80;;;;;;5028487;28;20903;-89
2022/11/08 08:12:24;;;;;;;13.77;7.23;;;11.30;62.60;;;;;;5011282;28;20481;-88
2022/11/08 08:15:11;;;;;;;22.23;5.67;;;11.60;62.40;;;;;;5028230;28;20451;-89
2022/11/08 08:18:04;;;;;;;31.07;7.10;;;11.60;61.80;;;;;;5035491;28;20893;-88
2022/11/08 08:20:38;;;;;;;23.30;6.13;;;11.20;62.40;;;;;;5070146;28;20482;-88
2022/11/08 08:23:30;;;;;;;43.73;6.90;;;11.00;63.40;;;;;;5080679;28;20462;-89
2022/11/08 08:26:11;;;;;;;16.33;6.20;;;10.80;63.80;;;;;;5067986;28;20451;-89
2022/11/08 08:29:05;;;;;;;28.73;7.30;;;11.30;63.60;;;;;;5070288;28;20828;-89
2022/11/08 08:31:57;;;;;;;9.37;6.90;;;11.30;62.80;;;;;;5081684;28;20951;-88
2022/11/08 08:34:25;;;;;;;19.30;11.00;;;11.00;63.80;;;;;;5078681;28;20450;-89
2022/11/08 08:37:17;;;;;;;16.30;10.33;;;10.80;64.60;;;;;;5084280;28;20482;-89
2022/11/08 08:40:06;;;;;;;26.13;8.10;;;11.10;64.60;;;;;;5080442;28;20459;-90
2022/11/08 08:42:41;;;;;;;48.00;9.50;;;11.30;63.80;;;;;;5072794;28;20470;-88
2022/11/08 08:45:34;;;;;;;14.53;7.53;;;11.40;63.80;;;;;;5080236;28;20504;-89
2022/11/08 08:48:26;;;;;;;25.97;7.60;;;11.30;63.90;;;;;;5100395;28;20462;-89
2022/11/08 08:51:09;;;;;;;7.60;6.17;;;11.00;64.90;;;;;;5070835;28;20510;-87
2022/11/08 08:53:36;;;;;;;13.17;6.60;;;11.30;65.30;;;;;;5053176;28;20459;-88
2022/11/08 08:56:04;;;;;;;11.17;7.40;;;11.30;65.00;;;;;;5077907;28;20442;-89
2022/11/08 08:58:39;;;;;;;11.90;8.10;;;11.50;64.40;;;;;;5095468;28;20452;-87
2022/11/08 09:01:15;;;;;;;12.10;8.47;;;11.70;63.40;;;;;;5083156;28;20538;-88
2022/11/08 09:03:48;;;;;;;18.13;8.33;;;11.70;63.40;;;;;;5079012;28;21995;-89
2022/11/08 09:06:36;;;;;;;12.47;7.50;;;11.80;62.70;;;;;;5078326;28;20473;-88
2022/11/08 09:09:06;;;;;;;17.23;8.20;;;12.10;62.90;;;;;;5094918;28;20444;-90
2022/11/08 09:11:33;;;;;;;16.33;7.73;;;12.30;62.20;;;;;;5076354;28;20520;-89
2022/11/08 09:14:00;;;;;;;17.90;7.43;;;12.50;61.60;;;;;;5060358;28;20452;-89
2022/11/08 09:16:28;;;;;;;14.50;9.07;;;12.70;61.10;;;;;;5059345;28;21326;-88
2022/11/08 09:18:55;;;;;;;17.13;8.90;;;12.50;61.20;;;;;;5068071;28;20959;-89
2022/11/08 09:21:22;;;;;;;15.77;10.43;;;12.50;61.10;;;;;;5061049;28;20833;-88
2022/11/08 09:23:50;;;;;;;12.93;8.93;;;12.70;61.10;;;;;;5086294;28;20559;-91
2022/11/08 09:26:17;;;;;;;18.87;11.10;;;12.70;60.60;;;;;;5097625;28;20447;-88
2022/11/08 09:28:44;;;;;;;15.00;8.97;;;12.80;60.80;;;;;;5062433;28;20674;-88
2022/11/08 09:31:12;;;;;;;13.90;9.60;;;12.90;60.80;;;;;;5082053;28;20462;-87
2022/11/08 09:33:41;;;;;;;28.13;15.07;;;12.90;61.00;;;;;;5080431;28;20537;-88
2022/11/08 09:36:19;;;;;;;37.60;17.10;;;13.10;60.50;;;;;;5078896;28;20875;-88
2022/11/08 09:38:47;;;;;;;16.93;10.83;;;13.20;60.40;;;;;;5079798;28;20535;-88
2022/11/08 09:41:34;;;;;;;64.20;29.70;;;13.00;60.00;;;;;;5076558;28;20464;-91
2022/11/08 09:44:13;;;;;;;36.33;19.50;;;12.70;61.40;;;;;;5075881;28;20527;-88
2022/11/08 09:46:47;;;;;;;23.40;13.20;;;13.00;61.20;;;;;;5080881;28;20436;-89
2022/11/08 09:49:19;;;;;;;20.93;12.73;;;13.20;61.00;;;;;;5103310;28;20718;-88
2022/11/08 09:51:47;;;;;;;18.07;13.00;;;12.80;61.90;;;;;;5100791;28;20472;-89
2022/11/08 09:54:20;;;;;;;14.20;11.23;;;12.60;63.40;;;;;;5043445;28;20981;-88
2022/11/08 09:56:54;;;;;;;15.33;9.93;;;12.60;63.80;;;;;;5074565;28;20947;-88
2022/11/08 09:59:34;;;;;;;14.10;9.60;;;12.80;63.60;;;;;;5070349;28;21000;-89
2022/11/08 10:02:02;;;;;;;11.33;9.77;;;12.80;63.80;;;;;;5068771;28;21034;-87
2022/11/08 10:04:32;;;;;;;16.47;12.93;;;12.90;63.50;;;;;;5047790;28;20819;-87
2022/11/08 10:07:14;;;;;;;10.23;7.47;;;13.00;63.40;;;;;;5072401;28;20447;-90
2022/11/08 10:10:04;;;;;;;8.90;6.27;;;13.10;62.70;;;;;;5064240;28;20443;-89
2022/11/08 10:12:40;;;;;;;8.43;6.50;;;13.20;62.90;;;;;;5048143;28;20858;-88
2022/11/08 10:15:16;;;;;;;11.20;7.93;;;13.40;62.40;;;;;;5086730;28;20532;-88
2022/11/08 10:18:01;;;;;;;12.00;7.60;;;13.60;61.50;;;;;;5056817;28;20454;-88
2022/11/08 10:20:40;;;;;;;8.83;6.30;;;13.70;61.80;;;;;;5086854;28;20451;-86
2022/11/08 10:23:20;;;;;;;9.23;6.67;;;13.90;61.30;;;;;;5069182;28;20534;-87
2022/11/08 10:25:52;;;;;;;7.80;6.30;;;14.00;61.00;;;;;;5074467;28;20454;-87
2022/11/08 10:28:24;;;;;;;7.17;5.40;;;14.10;60.80;;;;;;5067149;28;20447;-87
2022/11/08 10:30:53;;;;;;;8.23;7.40;;;14.00;61.00;;;;;;5071981;28;20564;-91
2022/11/08 10:33:27;;;;;;;9.17;7.73;;;13.90;61.50;;;;;;5084946;28;20811;-87
2022/11/08 10:36:00;;;;;;;10.90;9.70;;;13.80;62.20;;;;;;5066509;28;21074;-89
2022/11/08 10:38:34;;;;;;;10.80;7.27;;;13.70;62.90;;;;;;5067168;28;20451;-90
2022/11/08 10:41:10;;;;;;;10.30;6.60;;;13.70;63.00;;;;;;5083866;28;20585;-90
2022/11/08 10:43:42;;;;;;;6.77;6.07;;;14.00;62.60;;;;;;5061074;28;20564;-89
2022/11/08 10:46:22;;;;;;;8.63;5.83;;;14.30;62.00;;;;;;5076056;28;20442;-87
2022/11/08 10:48:49;;;;;;;8.97;6.23;;;14.50;61.40;;;;;;5074846;28;20453;-88
2022/11/08 10:51:18;;;;;;;7.23;5.80;;;14.60;60.60;;;;;;5093067;28;20454;-89
2022/11/08 10:53:45;;;;;;;7.47;5.77;;;14.70;61.20;;;;;;5067119;28;20456;-88
2022/11/08 10:56:13;;;;;;;8.60;6.10;;;14.60;60.70;;;;;;5050470;28;21860;-88
2022/11/08 10:58:43;;;;;;;6.87;6.20;;;14.40;61.70;;;;;;5055347;28;20462;-88
2022/11/08 11:01:16;;;;;;;8.87;7.33;;;14.50;61.80;;;;;;5086329;28;20489;-87
2022/11/08 11:03:43;;;;;;;7.50;6.40;;;14.70;61.40;;;;;;5059894;28;20534;-88
2022/11/08 11:06:24;;;;;;;9.43;6.60;;;14.90;60.80;;;;;;5061244;28;20457;-88
2022/11/08 11:08:55;;;;;;;9.47;7.40;;;15.10;60.50;;;;;;5067070;28;20861;-89
2022/11/08 11:11:25;;;;;;;7.77;5.83;;;14.90;60.30;;;;;;5071778;28;20466;-89
2022/11/08 11:14:07;;;;;;;9.50;6.40;;;14.80;61.10;;;;;;5079190;28;20551;-92
2022/11/08 11:16:36;;;;;;;11.53;6.43;;;14.90;61.00;;;;;;5085139;28;20475;-88
2022/11/08 11:19:05;;;;;;;13.83;9.37;;;15.20;60.60;;;;;;5056685;28;20442;-88
2022/11/08 11:21:38;;;;;;;10.97;8.50;;;15.30;60.10;;;;;;5054939;28;20467;-89
2022/11/08 11:24:08;;;;;;;12.77;7.67;;;15.40;60.10;;;;;;5104581;28;20453;-87
2022/11/08 11:26:41;;;;;;;10.50;7.60;;;15.40;60.00;;;;;;5084891;28;20435;-88
2022/11/08 11:29:22;;;;;;;13.57;7.43;;;15.50;59.80;;;;;;5078596;28;20516;-88
2022/11/08 11:31:51;;;;;;;7.03;4.80;;;15.70;59.90;;;;;;5097445;28;20531;-91
2022/11/08 11:34:43;;;;;;;8.67;5.10;;;15.80;59.40;;;;;;5104005;28;20483;-88
2022/11/08 11:37:29;;;;;;;8.77;5.77;;;15.90;59.10;;;;;;5082750;28;20786;-87
2022/11/08 11:40:12;;;;;;;6.30;5.70;;;16.00;59.10;;;;;;5059412;28;20543;-88
2022/11/08 11:42:47;;;;;;;18.73;6.30;;;16.20;59.90;;;;;;5081703;28;20475;-89
2022/11/08 11:45:19;;;;;;;5.07;4.57;;;16.50;60.40;;;;;;5086797;28;20450;-88
2022/11/08 11:47:50;;;;;;;18.97;8.67;;;16.50;58.40;;;;;;5046205;28;20446;-89
2022/11/08 11:50:30;;;;;;;7.27;6.57;;;16.40;58.30;;;;;;5104915;28;20954;-88
2022/11/08 11:53:00;;;;;;;14.77;9.47;;;16.50;58.60;;;;;;5083284;28;20471;-88
2022/11/08 11:55:36;;;;;;;12.43;8.30;;;16.60;58.60;;;;;;5108579;28;20496;-89
2022/11/08 11:58:17;;;;;;;8.10;5.63;;;16.70;58.80;;;;;;5098774;28;20445;-88
2022/11/08 12:00:55;;;;;;;6.50;5.53;;;16.80;57.50;;;;;;5084010;28;20496;-89
2022/11/08 12:03:39;;;;;;;8.53;6.10;;;17.10;57.70;;;;;;5086280;28;20435;-88
2022/11/08 12:06:21;;;;;;;8.43;6.60;;;17.60;58.00;;;;;;5068302;28;20448;-88
2022/11/08 12:09:02;;;;;;;7.17;5.47;;;17.90;57.30;;;;;;5054428;28;20577;-88
2022/11/08 12:11:39;;;;;;;9.57;6.00;;;18.10;56.20;;;;;;5104788;28;20474;-88
2022/11/08 12:14:27;;;;;;;7.73;5.13;;;18.00;55.20;;;;;;5072875;28;20442;-88
2022/11/08 12:17:05;;;;;;;6.43;5.77;;;18.00;55.70;;;;;;5082754;28;20450;-90
2022/11/08 12:19:45;;;;;;;5.67;4.80;;;18.00;55.80;;;;;;5068010;28;20865;-88
2022/11/08 12:22:33;;;;;;;10.60;7.07;;;18.10;56.20;;;;;;5099078;28;20475;-89
2022/11/08 12:25:11;;;;;;;7.57;5.40;;;18.30;57.00;;;;;;5063239;28;20470;-89
2022/11/08 12:27:46;;;;;;;11.33;6.20;;;18.50;55.90;;;;;;5100614;28;20540;-89
2022/11/08 12:30:18;;;;;;;16.93;7.03;;;18.70;56.60;;;;;;5087544;28;20976;-88
2022/11/08 12:33:06;;;;;;;11.77;8.30;;;18.90;56.30;;;;;;5085611;28;20981;-92
2022/11/08 12:35:40;;;;;;;7.10;5.33;;;19.10;53.90;;;;;;5089961;28;20508;-89
2022/11/08 12:38:19;;;;;;;7.60;5.10;;;19.10;53.70;;;;;;5100100;28;20446;-89
2022/11/08 12:40:58;;;;;;;9.20;6.57;;;19.10;53.70;;;;;;5088958;28;20454;-89
2022/11/08 12:43:49;;;;;;;6.60;4.83;;;19.10;54.20;;;;;;5087174;28;20446;-88
2022/11/08 12:46:18;;;;;;;7.53;4.13;;;19.20;54.70;;;;;;5046314;28;20452;-89
2022/11/08 12:49:00;;;;;;;4.20;3.83;;;19.10;54.80;;;;;;5069423;28;20436;-89
2022/11/08 12:51:37;;;;;;;10.70;4.87;;;19.00;55.50;;;;;;5103747;28;20478;-89
2022/11/08 12:54:19;;;;;;;12.13;3.83;;;19.00;55.90;;;;;;5103675;28;20550;-88
2022/11/08 12:56:49;;;;;;;6.50;4.73;;;18.90;55.70;;;;;;5089530;28;20969;-89
2022/11/08 12:59:21;;;;;;;12.13;6.00;;;18.70;55.40;;;;;;5087031;28;20471;-89
2022/11/08 13:01:48;;;;;;;4.80;3.93;;;18.50;55.80;;;;;;5097079;28;20979;-88
2022/11/08 13:04:37;;;;;;;26.37;15.27;;;18.40;56.20;;;;;;5052606;28;20509;-90
2022/11/08 13:07:11;;;;;;;11.53;5.30;;;18.30;55.90;;;;;;5070594;28;20462;-87
2022/11/08 13:09:46;;;;;;;7.87;5.80;;;18.40;56.30;;;;;;5082677;28;20445;-88
2022/11/08 13:12:27;;;;;;;6.90;4.00;;;18.50;56.30;;;;;;5098118;28;20581;-88
2022/11/08 13:14:54;;;;;;;10.60;4.10;;;18.70;56.20;;;;;;5051691;28;20534;-88
2022/11/08 13:17:25;;;;;;;4.57;4.10;;;18.90;56.40;;;;;;5045115;28;20539;-88
2022/11/08 13:19:58;;;;;;;7.97;3.80;;;19.00;56.20;;;;;;5076977;28;20443;-89
2022/11/08 13:22:42;;;;;;;4.67;3.70;;;19.10;56.10;;;;;;5060669;28;20977;-91